sensor_id;sensor_type;location;lat;lon;timestamp;P1;durP1;ratioP1;P2;durP2;ratioP2
8161;SDS011;16778;48.154;15.094;2022-08-01T00:00:44;1.50;;;1.40;;
8161;SDS011;16778;48.154;15.094;2022-08-01T00:03:09;1.70;;;1.40;;
8161;SDS011;16778;48.154;15.094;2022-08-01T00:05:35;1.50;;;1.40;;
8161;SDS011;16778;48.154;15.094;2022-08-01T00:08:01;2.23;;;1.80;;
8161;SDS011;16778;48.154;15.094;2022-08-01T00:10:27;1.53;;;1.43;;
8161;SDS011;16778;48.154;15.094;2022-08-01T00:12:56;1.70;;;1.60;;
8161;SDS011;16778;48.154;15.094;2022-08-01T00:15:21;2.00;;;1.80;;
8161;SDS011;16778;48.154;15.094;2022-08-01T00:17:47;1.43;;;1.33;;
8161;SDS011;16778;48.154;15.094;2022-08-01T00:20:15;1.80;;;1.40;;
8161;SDS011;16778;48.154;15.094;2022-08-01T00:22:41;1.50;;;1.37;;
8161;SDS011;16778;48.154;15.094;2022-08-01T00:25:07;1.57;;;1.43;;
8161;SDS011;16778;48.154;15.094;2022-08-01T00:27:33;2.83;;;1.77;;
8161;SDS011;16778;48.154;15.094;2022-08-01T00:29:59;1.77;;;1.33;;
8161;SDS011;16778;48.154;15.094;2022-08-01T00:32:25;2.50;;;1.97;;
8161;SDS011;16778;48.154;15.094;2022-08-01T00:34:51;2.13;;;1.60;;
8161;SDS011;16778;48.154;15.094;2022-08-01T00:37:16;2.10;;;1.70;;
8161;SDS011;16778;48.154;15.094;2022-08-01T00:39:42;1.70;;;1.40;;
8161;SDS011;16778;48.154;15.094;2022-08-01T00:42:09;1.50;;;1.40;;
8161;SDS011;16778;48.154;15.094;2022-08-01T00:44:37;1.80;;;1.70;;
8161;SDS011;16778;48.154;15.094;2022-08-01T00:47:04;1.50;;;1.40;;
8161;SDS011;16778;48.154;15.094;2022-08-01T00:49:30;1.87;;;1.67;;
8161;SDS011;16778;48.154;15.094;2022-08-01T00:51:57;1.70;;;1.40;;
8161;SDS011;16778;48.154;15.094;2022-08-01T00:54:26;1.50;;;1.40;;
8161;SDS011;16778;48.154;15.094;2022-08-01T00:56:53;1.40;;;1.30;;
8161;SDS011;16778;48.154;15.094;2022-08-01T00:59:20;1.70;;;1.40;;
8161;SDS011;16778;48.154;15.094;2022-08-01T01:01:48;1.70;;;1.33;;
8161;SDS011;16778;48.154;15.094;2022-08-01T01:04:15;2.10;;;1.50;;
8161;SDS011;16778;48.154;15.094;2022-08-01T01:06:44;1.30;;;1.20;;
8161;SDS011;16778;48.154;15.094;2022-08-01T01:09:53;1.87;;;1.30;;
8161;SDS011;16778;48.154;15.094;2022-08-01T01:13:01;2.00;;;1.40;;
8161;SDS011;16778;48.154;15.094;2022-08-01T01:15:47;1.53;;;1.43;;
8161;SDS011;16778;48.154;15.094;2022-08-01T01:18:34;1.30;;;1.13;;
8161;SDS011;16778;48.154;15.094;2022-08-01T01:29:53;2.27;;;1.53;;
8161;SDS011;16778;48.154;15.094;2022-08-01T01:34:54;1.47;;;1.10;;
8161;SDS011;16778;48.154;15.094;2022-08-01T01:37:22;1.40;;;1.27;;
8161;SDS011;16778;48.154;15.094;2022-08-01T01:39:51;1.40;;;1.30;;
8161;SDS011;16778;48.154;15.094;2022-08-01T01:42:18;1.70;;;1.30;;
8161;SDS011;16778;48.154;15.094;2022-08-01T01:44:45;1.43;;;1.30;;
8161;SDS011;16778;48.154;15.094;2022-08-01T01:47:13;1.40;;;1.30;;
8161;SDS011;16778;48.154;15.094;2022-08-01T01:49:41;1.20;;;1.10;;
8161;SDS011;16778;48.154;15.094;2022-08-01T01:52:11;1.43;;;1.33;;
8161;SDS011;16778;48.154;15.094;2022-08-01T01:54:42;1.43;;;1.30;;
8161;SDS011;16778;48.154;15.094;2022-08-01T01:57:13;2.07;;;1.50;;
8161;SDS011;16778;48.154;15.094;2022-08-01T01:59:40;1.43;;;1.33;;
8161;SDS011;16778;48.154;15.094;2022-08-01T02:02:08;2.03;;;1.23;;
8161;SDS011;16778;48.154;15.094;2022-08-01T02:04:36;1.40;;;1.30;;
8161;SDS011;16778;48.154;15.094;2022-08-01T02:07:10;1.53;;;1.30;;
8161;SDS011;16778;48.154;15.094;2022-08-01T02:09:49;1.23;;;1.13;;
8161;SDS011;16778;48.154;15.094;2022-08-01T02:12:16;1.20;;;1.10;;
8161;SDS011;16778;48.154;15.094;2022-08-01T02:14:44;1.30;;;1.20;;
8161;SDS011;16778;48.154;15.094;2022-08-01T02:17:12;1.30;;;1.20;;
8161;SDS011;16778;48.154;15.094;2022-08-01T02:19:43;2.63;;;1.67;;
8161;SDS011;16778;48.154;15.094;2022-08-01T02:22:11;2.53;;;1.90;;
8161;SDS011;16778;48.154;15.094;2022-08-01T02:24:49;2.20;;;1.63;;
8161;SDS011;16778;48.154;15.094;2022-08-01T02:27:30;1.83;;;1.50;;
8161;SDS011;16778;48.154;15.094;2022-08-01T02:30:06;1.23;;;1.13;;
8161;SDS011;16778;48.154;15.094;2022-08-01T02:32:43;2.47;;;1.80;;
8161;SDS011;16778;48.154;15.094;2022-08-01T02:35:20;1.23;;;1.13;;
8161;SDS011;16778;48.154;15.094;2022-08-01T02:38:00;1.20;;;1.10;;
8161;SDS011;16778;48.154;15.094;2022-08-01T02:40:29;1.83;;;1.20;;
8161;SDS011;16778;48.154;15.094;2022-08-01T02:42:59;1.87;;;1.30;;
8161;SDS011;16778;48.154;15.094;2022-08-01T02:45:28;1.47;;;1.33;;
8161;SDS011;16778;48.154;15.094;2022-08-01T02:47:57;1.40;;;1.30;;
8161;SDS011;16778;48.154;15.094;2022-08-01T02:50:36;2.17;;;1.30;;
8161;SDS011;16778;48.154;15.094;2022-08-01T02:53:04;2.63;;;1.23;;
8161;SDS011;16778;48.154;15.094;2022-08-01T02:55:32;1.53;;;1.33;;
8161;SDS011;16778;48.154;15.094;2022-08-01T02:58:01;1.80;;;1.40;;
8161;SDS011;16778;48.154;15.094;2022-08-01T03:00:28;0.93;;;0.93;;
8161;SDS011;16778;48.154;15.094;2022-08-01T03:02:56;1.60;;;1.33;;
8161;SDS011;16778;48.154;15.094;2022-08-01T03:05:24;1.63;;;1.53;;
8161;SDS011;16778;48.154;15.094;2022-08-01T03:07:52;0.97;;;0.93;;
8161;SDS011;16778;48.154;15.094;2022-08-01T03:10:20;1.23;;;1.10;;
8161;SDS011;16778;48.154;15.094;2022-08-01T03:12:48;1.30;;;1.10;;
8161;SDS011;16778;48.154;15.094;2022-08-01T03:15:15;1.37;;;1.27;;
8161;SDS011;16778;48.154;15.094;2022-08-01T03:17:43;2.43;;;1.50;;
8161;SDS011;16778;48.154;15.094;2022-08-01T03:20:13;1.40;;;1.30;;
8161;SDS011;16778;48.154;15.094;2022-08-01T03:22:42;1.00;;;0.90;;
8161;SDS011;16778;48.154;15.094;2022-08-01T03:25:10;1.63;;;1.30;;
8161;SDS011;16778;48.154;15.094;2022-08-01T03:27:38;1.20;;;1.00;;
8161;SDS011;16778;48.154;15.094;2022-08-01T03:30:08;1.00;;;0.90;;
8161;SDS011;16778;48.154;15.094;2022-08-01T03:32:35;1.63;;;1.00;;
8161;SDS011;16778;48.154;15.094;2022-08-01T03:35:01;1.27;;;1.13;;
8161;SDS011;16778;48.154;15.094;2022-08-01T03:37:29;1.30;;;1.20;;
8161;SDS011;16778;48.154;15.094;2022-08-01T03:40:30;1.57;;;1.47;;
8161;SDS011;16778;48.154;15.094;2022-08-01T03:43:05;1.50;;;1.30;;
8161;SDS011;16778;48.154;15.094;2022-08-01T03:45:46;1.47;;;1.37;;
8161;SDS011;16778;48.154;15.094;2022-08-01T03:48:17;1.70;;;1.30;;
8161;SDS011;16778;48.154;15.094;2022-08-01T03:50:48;1.27;;;1.17;;
8161;SDS011;16778;48.154;15.094;2022-08-01T03:53:19;1.17;;;1.13;;
8161;SDS011;16778;48.154;15.094;2022-08-01T03:55:49;1.23;;;1.13;;
8161;SDS011;16778;48.154;15.094;2022-08-01T03:58:17;1.63;;;1.30;;
8161;SDS011;16778;48.154;15.094;2022-08-01T04:00:43;1.40;;;1.30;;
8161;SDS011;16778;48.154;15.094;2022-08-01T04:03:10;1.40;;;1.30;;
8161;SDS011;16778;48.154;15.094;2022-08-01T04:05:40;1.17;;;1.07;;
8161;SDS011;16778;48.154;15.094;2022-08-01T04:08:07;1.83;;;1.40;;
8161;SDS011;16778;48.154;15.094;2022-08-01T04:10:33;1.63;;;1.27;;
8161;SDS011;16778;48.154;15.094;2022-08-01T04:12:59;1.37;;;1.10;;
8161;SDS011;16778;48.154;15.094;2022-08-01T04:15:25;1.50;;;1.40;;
8161;SDS011;16778;48.154;15.094;2022-08-01T04:17:51;1.53;;;1.27;;
8161;SDS011;16778;48.154;15.094;2022-08-01T04:20:18;1.23;;;1.13;;
8161;SDS011;16778;48.154;15.094;2022-08-01T04:22:45;1.47;;;1.37;;
8161;SDS011;16778;48.154;15.094;2022-08-01T04:25:32;1.20;;;1.10;;
8161;SDS011;16778;48.154;15.094;2022-08-01T04:28:02;1.57;;;1.30;;
8161;SDS011;16778;48.154;15.094;2022-08-01T04:30:33;1.23;;;1.13;;
8161;SDS011;16778;48.154;15.094;2022-08-01T04:33:01;1.50;;;1.30;;
8161;SDS011;16778;48.154;15.094;2022-08-01T04:35:31;1.30;;;1.20;;
8161;SDS011;16778;48.154;15.094;2022-08-01T04:37:59;1.30;;;1.20;;
8161;SDS011;16778;48.154;15.094;2022-08-01T04:40:28;1.80;;;1.17;;
8161;SDS011;16778;48.154;15.094;2022-08-01T04:42:55;1.43;;;1.20;;
8161;SDS011;16778;48.154;15.094;2022-08-01T04:45:22;1.23;;;1.13;;
8161;SDS011;16778;48.154;15.094;2022-08-01T04:47:49;1.20;;;1.10;;
8161;SDS011;16778;48.154;15.094;2022-08-01T04:50:16;1.63;;;1.43;;
8161;SDS011;16778;48.154;15.094;2022-08-01T04:52:42;1.20;;;1.10;;
8161;SDS011;16778;48.154;15.094;2022-08-01T04:55:08;1.53;;;1.40;;
8161;SDS011;16778;48.154;15.094;2022-08-01T04:57:36;1.63;;;1.37;;
8161;SDS011;16778;48.154;15.094;2022-08-01T05:00:06;1.70;;;1.10;;
8161;SDS011;16778;48.154;15.094;2022-08-01T05:02:33;1.63;;;1.53;;
8161;SDS011;16778;48.154;15.094;2022-08-01T05:04:59;2.33;;;1.20;;
8161;SDS011;16778;48.154;15.094;2022-08-01T05:07:25;1.67;;;1.33;;
8161;SDS011;16778;48.154;15.094;2022-08-01T05:09:51;1.93;;;1.70;;
8161;SDS011;16778;48.154;15.094;2022-08-01T05:12:17;2.07;;;1.30;;
8161;SDS011;16778;48.154;15.094;2022-08-01T05:14:43;1.20;;;1.10;;
8161;SDS011;16778;48.154;15.094;2022-08-01T05:17:09;1.57;;;1.47;;
8161;SDS011;16778;48.154;15.094;2022-08-01T05:19:36;1.50;;;1.40;;
8161;SDS011;16778;48.154;15.094;2022-08-01T05:22:05;1.40;;;1.30;;
8161;SDS011;16778;48.154;15.094;2022-08-01T05:24:37;2.67;;;1.50;;
8161;SDS011;16778;48.154;15.094;2022-08-01T05:27:04;1.50;;;1.40;;
8161;SDS011;16778;48.154;15.094;2022-08-01T05:29:32;1.47;;;1.33;;
8161;SDS011;16778;48.154;15.094;2022-08-01T05:31:59;2.00;;;1.57;;
8161;SDS011;16778;48.154;15.094;2022-08-01T05:34:25;1.67;;;1.37;;
8161;SDS011;16778;48.154;15.094;2022-08-01T05:36:51;1.70;;;1.57;;
8161;SDS011;16778;48.154;15.094;2022-08-01T05:39:18;1.53;;;1.43;;
8161;SDS011;16778;48.154;15.094;2022-08-01T05:41:44;1.40;;;1.30;;
8161;SDS011;16778;48.154;15.094;2022-08-01T05:44:12;1.70;;;1.60;;
8161;SDS011;16778;48.154;15.094;2022-08-01T05:46:38;1.70;;;1.60;;
8161;SDS011;16778;48.154;15.094;2022-08-01T05:49:04;1.30;;;1.10;;
8161;SDS011;16778;48.154;15.094;2022-08-01T05:51:30;1.60;;;1.50;;
8161;SDS011;16778;48.154;15.094;2022-08-01T05:53:57;1.93;;;1.20;;
8161;SDS011;16778;48.154;15.094;2022-08-01T05:56:24;1.83;;;1.37;;
8161;SDS011;16778;48.154;15.094;2022-08-01T05:58:50;1.73;;;1.47;;
8161;SDS011;16778;48.154;15.094;2022-08-01T06:01:17;1.50;;;1.40;;
8161;SDS011;16778;48.154;15.094;2022-08-01T06:03:44;1.83;;;1.60;;
8161;SDS011;16778;48.154;15.094;2022-08-01T06:06:10;1.60;;;1.40;;
8161;SDS011;16778;48.154;15.094;2022-08-01T06:08:38;2.20;;;1.43;;
8161;SDS011;16778;48.154;15.094;2022-08-01T06:11:05;2.17;;;1.60;;
8161;SDS011;16778;48.154;15.094;2022-08-01T06:13:31;2.33;;;1.80;;
8161;SDS011;16778;48.154;15.094;2022-08-01T06:15:56;2.37;;;1.77;;
8161;SDS011;16778;48.154;15.094;2022-08-01T06:18:22;1.77;;;1.30;;
8161;SDS011;16778;48.154;15.094;2022-08-01T06:20:48;1.80;;;1.70;;
8161;SDS011;16778;48.154;15.094;2022-08-01T06:23:14;2.27;;;1.80;;
8161;SDS011;16778;48.154;15.094;2022-08-01T06:25:41;2.00;;;1.77;;
8161;SDS011;16778;48.154;15.094;2022-08-01T06:28:08;2.20;;;1.40;;
8161;SDS011;16778;48.154;15.094;2022-08-01T06:30:34;1.53;;;1.30;;
8161;SDS011;16778;48.154;15.094;2022-08-01T06:33:00;1.50;;;1.40;;
8161;SDS011;16778;48.154;15.094;2022-08-01T06:35:27;2.00;;;1.80;;
8161;SDS011;16778;48.154;15.094;2022-08-01T06:37:54;1.90;;;1.67;;
8161;SDS011;16778;48.154;15.094;2022-08-01T06:40:21;1.73;;;1.47;;
8161;SDS011;16778;48.154;15.094;2022-08-01T06:42:47;2.03;;;1.63;;
8161;SDS011;16778;48.154;15.094;2022-08-01T06:45:13;2.00;;;1.60;;
8161;SDS011;16778;48.154;15.094;2022-08-01T06:47:40;2.23;;;1.70;;
8161;SDS011;16778;48.154;15.094;2022-08-01T06:50:08;1.70;;;1.60;;
8161;SDS011;16778;48.154;15.094;2022-08-01T06:52:36;1.30;;;1.20;;
8161;SDS011;16778;48.154;15.094;2022-08-01T06:55:03;2.47;;;1.40;;
8161;SDS011;16778;48.154;15.094;2022-08-01T06:57:29;1.47;;;1.37;;
8161;SDS011;16778;48.154;15.094;2022-08-01T06:59:55;1.27;;;1.17;;
8161;SDS011;16778;48.154;15.094;2022-08-01T07:02:21;1.37;;;1.27;;
8161;SDS011;16778;48.154;15.094;2022-08-01T07:04:48;1.60;;;1.50;;
8161;SDS011;16778;48.154;15.094;2022-08-01T07:07:14;1.37;;;0.90;;
8161;SDS011;16778;48.154;15.094;2022-08-01T07:09:42;1.30;;;1.20;;
8161;SDS011;16778;48.154;15.094;2022-08-01T07:12:08;1.30;;;1.20;;
8161;SDS011;16778;48.154;15.094;2022-08-01T07:14:34;1.10;;;0.90;;
8161;SDS011;16778;48.154;15.094;2022-08-01T07:17:00;0.93;;;0.80;;
8161;SDS011;16778;48.154;15.094;2022-08-01T07:19:26;1.33;;;0.90;;
8161;SDS011;16778;48.154;15.094;2022-08-01T07:21:52;1.13;;;1.00;;
8161;SDS011;16778;48.154;15.094;2022-08-01T07:24:18;1.10;;;1.00;;
8161;SDS011;16778;48.154;15.094;2022-08-01T07:26:45;1.23;;;1.13;;
8161;SDS011;16778;48.154;15.094;2022-08-01T07:29:13;1.00;;;0.90;;
8161;SDS011;16778;48.154;15.094;2022-08-01T07:31:39;1.17;;;0.90;;
8161;SDS011;16778;48.154;15.094;2022-08-01T07:34:05;0.80;;;0.80;;
8161;SDS011;16778;48.154;15.094;2022-08-01T07:36:31;1.10;;;1.03;;
8161;SDS011;16778;48.154;15.094;2022-08-01T07:38:57;1.23;;;1.00;;
8161;SDS011;16778;48.154;15.094;2022-08-01T07:41:23;1.10;;;0.97;;
8161;SDS011;16778;48.154;15.094;2022-08-01T07:43:49;1.23;;;1.13;;
8161;SDS011;16778;48.154;15.094;2022-08-01T07:46:15;1.30;;;1.20;;
8161;SDS011;16778;48.154;15.094;2022-08-01T07:48:42;1.60;;;1.50;;
8161;SDS011;16778;48.154;15.094;2022-08-01T07:51:08;1.17;;;1.00;;
8161;SDS011;16778;48.154;15.094;2022-08-01T07:53:35;0.87;;;0.87;;
8161;SDS011;16778;48.154;15.094;2022-08-01T07:56:02;2.93;;;1.00;;
8161;SDS011;16778;48.154;15.094;2022-08-01T07:58:30;0.90;;;0.90;;
8161;SDS011;16778;48.154;15.094;2022-08-01T08:00:57;1.23;;;0.93;;
8161;SDS011;16778;48.154;15.094;2022-08-01T08:03:23;0.70;;;0.70;;
8161;SDS011;16778;48.154;15.094;2022-08-01T08:05:50;0.70;;;0.70;;
8161;SDS011;16778;48.154;15.094;2022-08-01T08:08:15;0.30;;;0.30;;
8161;SDS011;16778;48.154;15.094;2022-08-01T08:10:43;0.50;;;0.50;;
8161;SDS011;16778;48.154;15.094;2022-08-01T08:13:09;0.73;;;0.70;;
8161;SDS011;16778;48.154;15.094;2022-08-01T08:15:35;1.33;;;0.97;;
8161;SDS011;16778;48.154;15.094;2022-08-01T08:18:02;1.57;;;0.90;;
8161;SDS011;16778;48.154;15.094;2022-08-01T08:20:29;1.17;;;1.00;;
8161;SDS011;16778;48.154;15.094;2022-08-01T08:22:55;0.83;;;0.83;;
8161;SDS011;16778;48.154;15.094;2022-08-01T08:25:23;1.10;;;0.97;;
8161;SDS011;16778;48.154;15.094;2022-08-01T08:27:50;1.20;;;1.10;;
8161;SDS011;16778;48.154;15.094;2022-08-01T08:30:16;1.20;;;1.07;;
8161;SDS011;16778;48.154;15.094;2022-08-01T08:32:43;1.23;;;0.77;;
8161;SDS011;16778;48.154;15.094;2022-08-01T08:35:09;1.47;;;0.97;;
8161;SDS011;16778;48.154;15.094;2022-08-01T08:37:36;1.10;;;1.00;;
8161;SDS011;16778;48.154;15.094;2022-08-01T08:40:05;1.07;;;0.90;;
8161;SDS011;16778;48.154;15.094;2022-08-01T08:42:32;1.80;;;0.83;;
8161;SDS011;16778;48.154;15.094;2022-08-01T08:44:59;0.87;;;0.60;;
8161;SDS011;16778;48.154;15.094;2022-08-01T08:47:24;1.17;;;1.00;;
8161;SDS011;16778;48.154;15.094;2022-08-01T08:49:53;1.07;;;0.90;;
8161;SDS011;16778;48.154;15.094;2022-08-01T08:52:21;1.20;;;1.10;;
8161;SDS011;16778;48.154;15.094;2022-08-01T08:54:48;1.20;;;1.10;;
8161;SDS011;16778;48.154;15.094;2022-08-01T08:57:15;1.07;;;0.97;;
8161;SDS011;16778;48.154;15.094;2022-08-01T08:59:44;0.77;;;0.77;;
8161;SDS011;16778;48.154;15.094;2022-08-01T09:02:10;1.10;;;1.00;;
8161;SDS011;16778;48.154;15.094;2022-08-01T09:04:37;0.63;;;0.63;;
8161;SDS011;16778;48.154;15.094;2022-08-01T09:07:05;1.00;;;0.90;;
8161;SDS011;16778;48.154;15.094;2022-08-01T09:09:33;1.00;;;1.00;;
8161;SDS011;16778;48.154;15.094;2022-08-01T09:11:59;1.67;;;1.00;;
8161;SDS011;16778;48.154;15.094;2022-08-01T09:14:26;0.73;;;0.73;;
8161;SDS011;16778;48.154;15.094;2022-08-01T09:17:08;1.13;;;1.00;;
8161;SDS011;16778;48.154;15.094;2022-08-01T09:19:43;1.03;;;0.97;;
8161;SDS011;16778;48.154;15.094;2022-08-01T09:22:14;1.00;;;0.90;;
8161;SDS011;16778;48.154;15.094;2022-08-01T09:25:02;0.60;;;0.60;;
8161;SDS011;16778;48.154;15.094;2022-08-01T09:27:32;1.30;;;1.10;;
8161;SDS011;16778;48.154;15.094;2022-08-01T09:30:07;1.03;;;1.00;;
8161;SDS011;16778;48.154;15.094;2022-08-01T09:32:58;1.03;;;0.80;;
8161;SDS011;16778;48.154;15.094;2022-08-01T09:35:30;1.00;;;1.00;;
8161;SDS011;16778;48.154;15.094;2022-08-01T09:38:11;1.60;;;1.10;;
8161;SDS011;16778;48.154;15.094;2022-08-01T09:40:44;0.97;;;0.90;;
8161;SDS011;16778;48.154;15.094;2022-08-01T09:43:21;1.17;;;1.00;;
8161;SDS011;16778;48.154;15.094;2022-08-01T09:45:49;0.80;;;0.80;;
8161;SDS011;16778;48.154;15.094;2022-08-01T09:48:16;0.83;;;0.77;;
8161;SDS011;16778;48.154;15.094;2022-08-01T09:50:49;0.77;;;0.73;;
8161;SDS011;16778;48.154;15.094;2022-08-01T09:53:17;2.33;;;0.80;;
8161;SDS011;16778;48.154;15.094;2022-08-01T09:55:43;1.43;;;1.00;;
8161;SDS011;16778;48.154;15.094;2022-08-01T09:58:12;0.37;;;0.37;;
8161;SDS011;16778;48.154;15.094;2022-08-01T10:00:38;1.30;;;0.83;;
8161;SDS011;16778;48.154;15.094;2022-08-01T10:03:24;0.70;;;0.70;;
8161;SDS011;16778;48.154;15.094;2022-08-01T10:05:52;0.60;;;0.60;;
8161;SDS011;16778;48.154;15.094;2022-08-01T10:08:19;1.23;;;1.00;;
8161;SDS011;16778;48.154;15.094;2022-08-01T10:11:07;0.90;;;0.83;;
8161;SDS011;16778;48.154;15.094;2022-08-01T10:13:36;0.97;;;0.90;;
8161;SDS011;16778;48.154;15.094;2022-08-01T10:16:02;0.90;;;0.90;;
8161;SDS011;16778;48.154;15.094;2022-08-01T10:18:31;0.60;;;0.60;;
8161;SDS011;16778;48.154;15.094;2022-08-01T10:20:59;0.80;;;0.70;;
8161;SDS011;16778;48.154;15.094;2022-08-01T10:23:29;0.90;;;0.90;;
8161;SDS011;16778;48.154;15.094;2022-08-01T10:26:00;0.73;;;0.73;;
8161;SDS011;16778;48.154;15.094;2022-08-01T10:28:26;0.97;;;0.93;;
8161;SDS011;16778;48.154;15.094;2022-08-01T10:30:59;0.53;;;0.53;;
8161;SDS011;16778;48.154;15.094;2022-08-01T10:33:26;2.37;;;1.03;;
8161;SDS011;16778;48.154;15.094;2022-08-01T10:35:55;0.97;;;0.97;;
8161;SDS011;16778;48.154;15.094;2022-08-01T10:38:21;1.43;;;1.10;;
8161;SDS011;16778;48.154;15.094;2022-08-01T10:40:48;0.60;;;0.60;;
8161;SDS011;16778;48.154;15.094;2022-08-01T10:43:16;1.50;;;1.30;;
8161;SDS011;16778;48.154;15.094;2022-08-01T10:45:42;0.83;;;0.83;;
8161;SDS011;16778;48.154;15.094;2022-08-01T10:48:14;0.80;;;0.60;;
8161;SDS011;16778;48.154;15.094;2022-08-01T10:51:06;0.80;;;0.80;;
8161;SDS011;16778;48.154;15.094;2022-08-01T10:53:33;1.10;;;1.00;;
8161;SDS011;16778;48.154;15.094;2022-08-01T10:56:00;1.10;;;1.00;;
8161;SDS011;16778;48.154;15.094;2022-08-01T10:58:38;1.00;;;0.83;;
8161;SDS011;16778;48.154;15.094;2022-08-01T11:09:59;1.23;;;1.13;;
8161;SDS011;16778;48.154;15.094;2022-08-01T11:12:14;1.50;;;1.00;;
8161;SDS011;16778;48.154;15.094;2022-08-01T11:17:39;1.67;;;0.90;;
8161;SDS011;16778;48.154;15.094;2022-08-01T11:20:16;0.90;;;0.63;;
8161;SDS011;16778;48.154;15.094;2022-08-01T11:30:44;0.40;;;0.40;;
8161;SDS011;16778;48.154;15.094;2022-08-01T11:33:17;0.67;;;0.50;;
8161;SDS011;16778;48.154;15.094;2022-08-01T11:38:35;0.30;;;0.30;;
8161;SDS011;16778;48.154;15.094;2022-08-01T11:41:16;0.50;;;0.50;;
8161;SDS011;16778;48.154;15.094;2022-08-01T11:50:05;0.47;;;0.47;;
8161;SDS011;16778;48.154;15.094;2022-08-01T11:52:35;0.50;;;0.50;;
8161;SDS011;16778;48.154;15.094;2022-08-01T11:57:27;0.53;;;0.50;;
8161;SDS011;16778;48.154;15.094;2022-08-01T11:59:56;0.40;;;0.40;;
8161;SDS011;16778;48.154;15.094;2022-08-01T12:02:28;0.50;;;0.47;;
8161;SDS011;16778;48.154;15.094;2022-08-01T12:07:29;0.73;;;0.50;;
8161;SDS011;16778;48.154;15.094;2022-08-01T12:09:58;0.77;;;0.53;;
8161;SDS011;16778;48.154;15.094;2022-08-01T12:12:45;0.80;;;0.80;;
8161;SDS011;16778;48.154;15.094;2022-08-01T12:15:17;0.70;;;0.53;;
8161;SDS011;16778;48.154;15.094;2022-08-01T12:17:58;2.43;;;0.50;;
8161;SDS011;16778;48.154;15.094;2022-08-01T12:20:28;0.60;;;0.60;;
8161;SDS011;16778;48.154;15.094;2022-08-01T12:23:00;0.60;;;0.60;;
8161;SDS011;16778;48.154;15.094;2022-08-01T12:25:30;0.80;;;0.80;;
8161;SDS011;16778;48.154;15.094;2022-08-01T12:28:07;0.60;;;0.60;;
8161;SDS011;16778;48.154;15.094;2022-08-01T12:30:34;0.60;;;0.60;;
8161;SDS011;16778;48.154;15.094;2022-08-01T12:33:05;0.40;;;0.40;;
8161;SDS011;16778;48.154;15.094;2022-08-01T12:35:33;0.60;;;0.60;;
8161;SDS011;16778;48.154;15.094;2022-08-01T12:38:05;0.73;;;0.73;;
8161;SDS011;16778;48.154;15.094;2022-08-01T12:40:40;0.67;;;0.67;;
8161;SDS011;16778;48.154;15.094;2022-08-01T12:43:09;0.60;;;0.60;;
8161;SDS011;16778;48.154;15.094;2022-08-01T12:45:43;0.40;;;0.40;;
8161;SDS011;16778;48.154;15.094;2022-08-01T12:48:12;1.13;;;0.50;;
8161;SDS011;16778;48.154;15.094;2022-08-01T12:50:41;0.50;;;0.50;;
8161;SDS011;16778;48.154;15.094;2022-08-01T12:53:13;0.43;;;0.43;;
8161;SDS011;16778;48.154;15.094;2022-08-01T12:55:47;0.70;;;0.50;;
8161;SDS011;16778;48.154;15.094;2022-08-01T12:58:15;0.87;;;0.60;;
8161;SDS011;16778;48.154;15.094;2022-08-01T13:00:44;1.00;;;0.80;;
8161;SDS011;16778;48.154;15.094;2022-08-01T13:03:16;0.77;;;0.77;;
8161;SDS011;16778;48.154;15.094;2022-08-01T13:05:51;0.80;;;0.70;;
8161;SDS011;16778;48.154;15.094;2022-08-01T13:08:21;2.80;;;1.10;;
8161;SDS011;16778;48.154;15.094;2022-08-01T13:11:04;0.87;;;0.67;;
8161;SDS011;16778;48.154;15.094;2022-08-01T13:13:40;0.73;;;0.50;;
8161;SDS011;16778;48.154;15.094;2022-08-01T13:16:17;0.83;;;0.77;;
8161;SDS011;16778;48.154;15.094;2022-08-01T13:18:55;0.73;;;0.70;;
8161;SDS011;16778;48.154;15.094;2022-08-01T13:21:23;0.70;;;0.70;;
8161;SDS011;16778;48.154;15.094;2022-08-01T13:24:07;1.20;;;0.80;;
8161;SDS011;16778;48.154;15.094;2022-08-01T13:26:43;0.80;;;0.77;;
8161;SDS011;16778;48.154;15.094;2022-08-01T13:29:32;1.00;;;0.90;;
8161;SDS011;16778;48.154;15.094;2022-08-01T13:32:15;0.93;;;0.80;;
8161;SDS011;16778;48.154;15.094;2022-08-01T13:34:46;0.80;;;0.80;;
8161;SDS011;16778;48.154;15.094;2022-08-01T13:37:12;1.50;;;0.97;;
8161;SDS011;16778;48.154;15.094;2022-08-01T13:39:38;1.03;;;0.70;;
8161;SDS011;16778;48.154;15.094;2022-08-01T13:42:10;1.83;;;1.00;;
8161;SDS011;16778;48.154;15.094;2022-08-01T13:44:37;1.13;;;1.03;;
8161;SDS011;16778;48.154;15.094;2022-08-01T13:47:03;0.90;;;0.90;;
8161;SDS011;16778;48.154;15.094;2022-08-01T13:49:30;0.93;;;0.73;;
8161;SDS011;16778;48.154;15.094;2022-08-01T13:51:57;0.80;;;0.80;;
8161;SDS011;16778;48.154;15.094;2022-08-01T13:54:23;1.57;;;0.90;;
8161;SDS011;16778;48.154;15.094;2022-08-01T13:56:50;1.07;;;0.97;;
8161;SDS011;16778;48.154;15.094;2022-08-01T13:59:17;1.03;;;0.90;;
8161;SDS011;16778;48.154;15.094;2022-08-01T14:01:43;0.70;;;0.70;;
8161;SDS011;16778;48.154;15.094;2022-08-01T14:04:10;0.90;;;0.90;;
8161;SDS011;16778;48.154;15.094;2022-08-01T14:06:35;0.80;;;0.80;;
8161;SDS011;16778;48.154;15.094;2022-08-01T14:09:02;1.40;;;0.70;;
8161;SDS011;16778;48.154;15.094;2022-08-01T14:11:29;1.00;;;0.90;;
8161;SDS011;16778;48.154;15.094;2022-08-01T14:13:55;0.80;;;0.80;;
8161;SDS011;16778;48.154;15.094;2022-08-01T14:16:21;1.10;;;0.77;;
8161;SDS011;16778;48.154;15.094;2022-08-01T14:18:47;1.93;;;1.27;;
8161;SDS011;16778;48.154;15.094;2022-08-01T14:21:13;1.17;;;1.07;;
8161;SDS011;16778;48.154;15.094;2022-08-01T14:23:40;1.10;;;1.00;;
8161;SDS011;16778;48.154;15.094;2022-08-01T14:26:08;1.00;;;0.80;;
8161;SDS011;16778;48.154;15.094;2022-08-01T14:28:35;0.80;;;0.80;;
8161;SDS011;16778;48.154;15.094;2022-08-01T14:31:02;0.70;;;0.70;;
8161;SDS011;16778;48.154;15.094;2022-08-01T14:33:28;1.00;;;0.90;;
8161;SDS011;16778;48.154;15.094;2022-08-01T14:35:55;1.17;;;1.07;;
8161;SDS011;16778;48.154;15.094;2022-08-01T14:38:21;1.47;;;1.20;;
8161;SDS011;16778;48.154;15.094;2022-08-01T14:40:47;1.00;;;0.90;;
8161;SDS011;16778;48.154;15.094;2022-08-01T14:43:16;1.20;;;1.10;;
8161;SDS011;16778;48.154;15.094;2022-08-01T14:45:43;1.40;;;1.10;;
8161;SDS011;16778;48.154;15.094;2022-08-01T14:48:09;0.90;;;0.80;;
8161;SDS011;16778;48.154;15.094;2022-08-01T14:50:35;0.70;;;0.63;;
8161;SDS011;16778;48.154;15.094;2022-08-01T14:53:01;1.17;;;1.00;;
8161;SDS011;16778;48.154;15.094;2022-08-01T14:55:28;0.97;;;0.87;;
8161;SDS011;16778;48.154;15.094;2022-08-01T14:57:53;1.50;;;0.93;;
8161;SDS011;16778;48.154;15.094;2022-08-01T15:00:19;1.00;;;0.90;;
8161;SDS011;16778;48.154;15.094;2022-08-01T15:02:46;0.83;;;0.80;;
8161;SDS011;16778;48.154;15.094;2022-08-01T15:05:12;0.70;;;0.70;;
8161;SDS011;16778;48.154;15.094;2022-08-01T15:07:38;1.10;;;0.93;;
8161;SDS011;16778;48.154;15.094;2022-08-01T15:10:04;1.20;;;1.10;;
8161;SDS011;16778;48.154;15.094;2022-08-01T15:12:31;1.17;;;0.90;;
8161;SDS011;16778;48.154;15.094;2022-08-01T15:14:58;1.20;;;1.00;;
8161;SDS011;16778;48.154;15.094;2022-08-01T15:17:28;1.00;;;0.60;;
8161;SDS011;16778;48.154;15.094;2022-08-01T15:19:57;0.80;;;0.80;;
8161;SDS011;16778;48.154;15.094;2022-08-01T15:22:30;1.00;;;0.83;;
8161;SDS011;16778;48.154;15.094;2022-08-01T15:24:58;0.90;;;0.77;;
8161;SDS011;16778;48.154;15.094;2022-08-01T15:27:26;0.70;;;0.70;;
8161;SDS011;16778;48.154;15.094;2022-08-01T15:29:53;0.77;;;0.60;;
8161;SDS011;16778;48.154;15.094;2022-08-01T15:32:20;0.73;;;0.47;;
8161;SDS011;16778;48.154;15.094;2022-08-01T15:34:46;0.60;;;0.60;;
8161;SDS011;16778;48.154;15.094;2022-08-01T15:37:12;0.40;;;0.40;;
8161;SDS011;16778;48.154;15.094;2022-08-01T15:39:39;0.63;;;0.63;;
8161;SDS011;16778;48.154;15.094;2022-08-01T15:42:08;0.55;;;0.55;;
8161;SDS011;16778;48.154;15.094;2022-08-01T15:44:40;0.60;;;0.60;;